Terminal Aerodrome Forecast
Issued by NWS

Home | Current Version | Previous Version | Text Only | Print | Product List | Glossary On
Versions: 1 2 3 4 5 6 7 8 9 10 11 12 13 14 15 16 17 18 19 20 21
000
FTUS43 KILX 171700
TAFDEC
TAF
KDEC 171737Z 1718/1818 20006KT P6SM SCT035 BKN090
      TEMPO 1718/1721 BKN035
     FM172100 VRB04KT P6SM BKN050
     FM180100 06003KT P6SM SCT050
     FM180900 05003KT 5SM BR SCT250
     FM181400 08007KT P6SM SCT040=

USA.gov is the U.S. government's official web portal to all federal, state and local government web resources and services.